createdAt,value
2022-12-06T00:01:45.732Z,14.40
2022-12-06T00:04:16.687Z,14.98
2022-12-06T00:06:47.793Z,18.15
2022-12-06T00:09:23.410Z,19.17
2022-12-06T00:11:51.930Z,19.60
2022-12-06T00:14:21.151Z,18.85
2022-12-06T00:16:49.124Z,17.55
2022-12-06T00:19:19.761Z,18.65
2022-12-06T00:21:47.967Z,18.40
2022-12-06T00:24:19.692Z,19.10
2022-12-06T00:26:49.489Z,18.70
2022-12-06T00:29:23.708Z,16.57
2022-12-06T00:31:51.642Z,15.48
2022-12-06T00:34:19.604Z,13.78
2022-12-06T00:36:48.854Z,13.18
2022-12-06T00:39:17.903Z,13.10
2022-12-06T00:41:45.752Z,11.93
2022-12-06T00:44:13.623Z,11.97
2022-12-06T00:46:41.691Z,10.93
2022-12-06T00:49:11.482Z,10.30
2022-12-06T00:51:39.865Z,10.70
2022-12-06T00:54:10.304Z,11.10
2022-12-06T00:56:38.163Z,11.20
2022-12-06T00:59:06.405Z,11.28
2022-12-06T01:01:35.660Z,11.35
2022-12-06T01:04:06.856Z,11.75
2022-12-06T01:06:36.791Z,12.23
2022-12-06T01:09:10.150Z,13.05
2022-12-06T01:11:38.187Z,12.40
2022-12-06T01:14:06.123Z,14.43
2022-12-06T01:16:34.631Z,14.05
2022-12-06T01:19:05.647Z,14.45
2022-12-06T01:21:33.699Z,13.95
2022-12-06T01:24:01.468Z,13.32
2022-12-06T01:26:33.299Z,12.78
2022-12-06T01:29:02.128Z,12.18
2022-12-06T01:31:37.155Z,11.45
2022-12-06T01:34:00.927Z,11.73
2022-12-06T01:36:28.745Z,11.60
2022-12-06T01:39:00.000Z,12.03
2022-12-06T01:41:28.370Z,11.55
2022-12-06T01:43:56.931Z,11.57
2022-12-06T01:46:45.209Z,12.13
2022-12-06T01:49:23.532Z,12.35
2022-12-06T01:51:56.512Z,12.07
2022-12-06T01:54:25.664Z,12.53
2022-12-06T01:56:55.768Z,12.90
2022-12-06T01:59:25.537Z,12.80
2022-12-06T02:01:55.013Z,11.70
2022-12-06T02:04:24.299Z,13.08
2022-12-06T02:06:54.542Z,12.20
2022-12-06T02:09:23.153Z,11.88
2022-12-06T02:11:51.039Z,13.32
2022-12-06T02:14:23.447Z,13.55
2022-12-06T02:17:08.711Z,13.83
2022-12-06T02:20:00.261Z,14.83
2022-12-06T02:23:00.710Z,14.45
2022-12-06T02:26:25.601Z,13.80
2022-12-06T02:29:35.317Z,12.53
2022-12-06T02:32:20.393Z,14.30
2022-12-06T02:34:53.555Z,15.40
2022-12-06T02:37:32.957Z,15.23
2022-12-06T02:40:17.661Z,14.47
2022-12-06T02:43:02.001Z,14.98
2022-12-06T02:45:38.367Z,14.38
2022-12-06T02:48:09.437Z,13.25
2022-12-06T02:50:42.451Z,13.13
2022-12-06T02:53:14.819Z,11.85
2022-12-06T02:55:44.927Z,11.28
2022-12-06T02:58:12.725Z,11.48
2022-12-06T03:00:44.658Z,11.78
2022-12-06T03:03:42.484Z,10.55
2022-12-06T03:06:33.527Z,11.00
2022-12-06T03:09:21.390Z,10.98
2022-12-06T03:11:57.507Z,10.13
2022-12-06T03:14:28.853Z,11.20
2022-12-06T03:17:22.815Z,10.45
2022-12-06T03:19:56.544Z,10.53
2022-12-06T03:22:39.600Z,10.32
2022-12-06T03:25:08.352Z,11.45
2022-12-06T03:27:36.663Z,10.90
2022-12-06T03:30:09.435Z,11.43
2022-12-06T03:32:40.971Z,10.85
2022-12-06T03:35:12.338Z,10.25
2022-12-06T03:37:43.771Z,11.08
2022-12-06T03:40:30.449Z,10.48
2022-12-06T03:42:59.706Z,11.88
2022-12-06T03:45:48.391Z,13.10
2022-12-06T03:48:24.485Z,12.75
2022-12-06T03:51:03.547Z,13.22
2022-12-06T03:53:32.150Z,14.05
2022-12-06T03:56:00.308Z,13.10
2022-12-06T03:58:27.787Z,12.43
2022-12-06T04:00:55.621Z,13.28
2022-12-06T04:03:23.535Z,12.53
2022-12-06T04:05:51.198Z,12.75
2022-12-06T04:08:19.007Z,12.95
2022-12-06T04:10:46.997Z,12.73
2022-12-06T04:13:19.465Z,11.95
2022-12-06T04:15:45.163Z,12.98
2022-12-06T04:18:14.621Z,11.70
2022-12-06T04:21:12.416Z,12.33
2022-12-06T04:23:43.750Z,12.20
2022-12-06T04:26:16.163Z,12.05
2022-12-06T04:29:02.646Z,12.18
2022-12-06T04:31:48.676Z,16.70
2022-12-06T04:34:35.610Z,15.45
2022-12-06T04:37:22.097Z,13.38
2022-12-06T04:39:50.258Z,12.10
2022-12-06T04:42:36.755Z,13.25
2022-12-06T04:45:06.581Z,12.95
2022-12-06T04:47:34.566Z,12.70
2022-12-06T04:50:02.813Z,16.62
2022-12-06T04:52:35.445Z,21.95
2022-12-06T04:55:00.373Z,20.82
2022-12-06T04:57:28.478Z,25.25
2022-12-06T04:59:56.508Z,25.72
2022-12-06T05:02:24.718Z,22.35
2022-12-06T05:04:52.756Z,19.95
2022-12-06T05:07:21.248Z,20.75
2022-12-06T05:09:49.311Z,19.52
2022-12-06T05:12:22.122Z,18.10
2022-12-06T05:15:02.107Z,22.10
2022-12-06T05:17:38.950Z,23.27
2022-12-06T05:20:14.971Z,19.77
2022-12-06T05:22:45.859Z,19.35
2022-12-06T05:25:16.557Z,19.65
2022-12-06T05:27:46.746Z,19.60
2022-12-06T05:30:23.639Z,21.68
2022-12-06T05:32:56.851Z,21.48
2022-12-06T05:35:27.694Z,21.30
2022-12-06T05:37:55.764Z,19.32
2022-12-06T05:40:23.597Z,18.12
2022-12-06T05:42:51.301Z,20.05
2022-12-06T05:45:19.683Z,23.40
2022-12-06T05:47:47.755Z,23.62
2022-12-06T05:50:16.164Z,16.07
2022-12-06T05:52:44.623Z,17.27
2022-12-06T05:55:12.533Z,18.73
2022-12-06T05:57:45.624Z,19.52
2022-12-06T06:00:11.460Z,21.52
2022-12-06T06:02:42.854Z,21.52
2022-12-06T06:05:12.205Z,18.02
2022-12-06T06:07:43.952Z,16.80
2022-12-06T06:10:15.920Z,16.02
2022-12-06T06:12:46.715Z,16.70
2022-12-06T06:15:19.121Z,16.87
2022-12-06T06:17:47.625Z,17.02
2022-12-06T06:20:15.279Z,17.80
2022-12-06T06:22:48.110Z,17.82
2022-12-06T06:25:19.977Z,17.48
2022-12-06T06:27:47.944Z,15.75
2022-12-06T06:30:16.012Z,13.32
2022-12-06T06:32:44.000Z,13.65
2022-12-06T06:35:11.993Z,12.78
2022-12-06T06:37:40.922Z,13.18
2022-12-06T06:40:10.879Z,12.30
2022-12-06T06:42:39.040Z,12.95
2022-12-06T06:45:07.725Z,22.00
2022-12-06T06:47:35.497Z,17.85
2022-12-06T06:50:03.979Z,16.10
2022-12-06T06:52:32.352Z,16.70
2022-12-06T06:55:00.140Z,18.67
2022-12-06T06:57:28.173Z,16.73
2022-12-06T06:59:56.019Z,16.30
2022-12-06T07:02:23.868Z,16.93
2022-12-06T07:04:51.823Z,16.50
2022-12-06T07:07:21.396Z,17.45
2022-12-06T07:09:49.526Z,18.37
2022-12-06T07:12:18.060Z,20.30
2022-12-06T07:14:45.793Z,23.95
2022-12-06T07:17:13.647Z,22.45
2022-12-06T07:19:41.292Z,22.52
2022-12-06T07:22:10.311Z,22.02
2022-12-06T07:24:42.148Z,23.32
2022-12-06T07:27:07.727Z,22.10
2022-12-06T07:29:35.720Z,25.50
2022-12-06T07:32:03.446Z,27.48
2022-12-06T07:34:31.103Z,43.80
2022-12-06T07:36:58.930Z,38.67
2022-12-06T07:39:26.624Z,28.65
2022-12-06T07:42:13.055Z,24.32
2022-12-06T07:45:02.311Z,21.70
2022-12-06T07:47:36.926Z,17.02
2022-12-06T07:50:08.113Z,16.67
2022-12-06T07:52:37.212Z,15.45
2022-12-06T07:55:06.694Z,18.15
2022-12-06T07:57:40.023Z,19.12
2022-12-06T08:00:07.234Z,24.77
2022-12-06T08:02:36.772Z,21.60
2022-12-06T08:05:05.160Z,18.70
2022-12-06T08:07:33.377Z,18.52
2022-12-06T08:10:01.379Z,17.82
2022-12-06T08:12:32.995Z,16.52
2022-12-06T08:15:00.629Z,14.07
2022-12-06T08:17:30.090Z,13.75
2022-12-06T08:19:58.218Z,15.43
2022-12-06T08:22:27.851Z,19.37
2022-12-06T08:24:55.760Z,19.27
2022-12-06T08:27:23.680Z,20.77
2022-12-06T08:29:51.494Z,26.45
2022-12-06T08:32:19.387Z,28.17
2022-12-06T08:34:47.065Z,32.05
2022-12-06T08:37:14.928Z,34.85
2022-12-06T08:39:42.708Z,31.75
2022-12-06T08:42:10.419Z,32.83
2022-12-06T08:44:38.058Z,30.15
2022-12-06T08:47:05.696Z,28.45
2022-12-06T08:49:33.657Z,24.23
2022-12-06T08:52:01.638Z,22.35
2022-12-06T08:54:29.640Z,25.30
2022-12-06T08:56:57.404Z,22.73
2022-12-06T08:59:25.343Z,19.35
2022-12-06T09:01:53.101Z,17.37
2022-12-06T09:04:20.611Z,15.58
2022-12-06T09:06:48.339Z,13.50
2022-12-06T09:09:17.919Z,14.80
2022-12-06T09:11:48.734Z,14.50
2022-12-06T09:14:21.876Z,13.60
2022-12-06T09:16:48.118Z,12.53
2022-12-06T09:19:15.947Z,13.30
2022-12-06T09:21:45.819Z,13.58
2022-12-06T09:24:17.247Z,14.90
2022-12-06T09:26:47.274Z,10.70
2022-12-06T09:29:15.996Z,11.40
2022-12-06T09:31:45.990Z,9.68
2022-12-06T09:34:14.473Z,12.15
2022-12-06T09:36:49.533Z,12.47
2022-12-06T09:39:25.760Z,15.05
2022-12-06T09:42:04.932Z,14.25
2022-12-06T09:45:02.260Z,14.20
2022-12-06T09:47:57.682Z,14.58
2022-12-06T09:51:13.929Z,12.00
2022-12-06T09:54:17.202Z,10.93
2022-12-06T09:56:52.457Z,10.15
2022-12-06T09:59:28.506Z,10.45
2022-12-06T10:02:24.425Z,12.50
2022-12-06T10:07:57.836Z,12.50
2022-12-06T10:11:02.723Z,11.45
2022-12-06T10:14:03.517Z,12.30
2022-12-06T10:16:57.617Z,10.98
2022-12-06T10:19:36.575Z,10.75
2022-12-06T10:22:18.380Z,12.63
2022-12-06T10:25:15.919Z,11.83
2022-12-06T10:28:07.376Z,12.47
2022-12-06T10:30:51.373Z,10.05
2022-12-06T10:33:39.916Z,11.73
2022-12-06T10:36:10.151Z,10.48
2022-12-06T10:38:46.375Z,11.18
2022-12-06T10:41:38.121Z,9.65
2022-12-06T10:44:23.585Z,9.60
2022-12-06T10:47:12.482Z,9.38
2022-12-06T10:50:08.206Z,13.48
2022-12-06T10:52:50.384Z,16.82
2022-12-06T10:55:38.132Z,18.37
2022-12-06T10:58:29.227Z,20.55
2022-12-06T11:01:05.331Z,17.65
2022-12-06T11:03:43.752Z,18.25
2022-12-06T11:06:29.270Z,20.05
2022-12-06T11:09:02.340Z,21.80
2022-12-06T11:11:34.332Z,19.32
2022-12-06T11:14:10.324Z,17.15
2022-12-06T11:16:44.682Z,16.82
2022-12-06T11:19:35.842Z,17.55
2022-12-06T11:22:24.318Z,17.37
2022-12-06T11:25:27.117Z,16.73
2022-12-06T11:28:09.166Z,17.75
2022-12-06T11:30:37.529Z,18.92
2022-12-06T11:33:06.186Z,21.45
2022-12-06T11:35:36.863Z,20.90
2022-12-06T11:38:07.530Z,19.85
2022-12-06T11:40:45.663Z,24.45
2022-12-06T11:43:18.188Z,22.98
2022-12-06T11:45:47.250Z,19.90
2022-12-06T11:48:22.493Z,20.40
2022-12-06T11:50:53.483Z,19.75
2022-12-06T11:53:40.863Z,19.23
2022-12-06T11:56:24.056Z,18.80
2022-12-06T11:59:09.193Z,20.00
2022-12-06T12:01:49.963Z,19.87
2022-12-06T12:04:37.779Z,18.73
2022-12-06T12:07:16.745Z,16.67
2022-12-06T12:09:58.603Z,17.62
2022-12-06T12:13:04.942Z,22.25
2022-12-06T12:15:33.478Z,28.35
2022-12-06T12:18:04.043Z,18.27
2022-12-06T12:20:38.572Z,16.48
2022-12-06T12:23:19.628Z,18.43
2022-12-06T12:26:18.893Z,85.30
2022-12-06T12:29:20.029Z,21.57
2022-12-06T12:31:58.424Z,16.67
2022-12-06T12:34:30.957Z,17.25
2022-12-06T12:37:03.072Z,23.77
2022-12-06T12:39:53.253Z,23.57
2022-12-06T12:42:32.406Z,25.27
2022-12-06T12:45:04.296Z,24.57
2022-12-06T12:47:34.683Z,19.60
2022-12-06T12:50:18.361Z,16.65
2022-12-06T12:52:46.630Z,14.10
2022-12-06T12:55:23.197Z,15.58
2022-12-06T12:57:58.686Z,14.93
2022-12-06T13:03:49.512Z,13.32
2022-12-06T13:05:50.630Z,14.25
2022-12-06T13:08:25.505Z,13.68
2022-12-06T13:10:59.250Z,12.75
2022-12-06T13:13:32.808Z,13.65
2022-12-06T13:16:07.284Z,14.45
2022-12-06T13:18:51.437Z,12.80
2022-12-06T13:21:36.075Z,17.05
2022-12-06T13:24:26.809Z,20.43
2022-12-06T13:27:05.260Z,22.98
2022-12-06T13:29:50.904Z,20.00
2022-12-06T13:32:45.286Z,20.25
2022-12-06T13:35:24.554Z,19.75
2022-12-06T13:37:57.931Z,23.10
2022-12-06T13:40:51.611Z,30.77
2022-12-06T13:43:33.922Z,24.72
2022-12-06T13:46:23.693Z,23.20
2022-12-06T13:49:04.771Z,25.27
2022-12-06T13:51:40.627Z,32.05
2022-12-06T13:54:20.136Z,52.67
2022-12-06T13:56:48.167Z,37.58
2022-12-06T13:59:21.550Z,33.28
2022-12-06T14:01:55.249Z,30.32
2022-12-06T14:09:46.685Z,28.42
2022-12-06T14:12:25.616Z,26.97
2022-12-06T14:14:59.536Z,27.85
2022-12-06T14:18:00.790Z,28.32
2022-12-06T14:20:27.445Z,39.35
2022-12-06T14:22:56.106Z,87.67
2022-12-06T14:25:28.125Z,74.32
2022-12-06T14:28:06.592Z,85.38
2022-12-06T14:30:34.633Z,85.07
2022-12-06T14:33:02.623Z,73.22
2022-12-06T14:35:35.495Z,45.17
2022-12-06T14:38:25.586Z,36.25
2022-12-06T14:41:12.584Z,33.90
2022-12-06T14:43:44.193Z,32.67
2022-12-06T14:46:15.782Z,33.83
2022-12-06T14:49:03.738Z,35.00
2022-12-06T14:51:39.861Z,37.40
2022-12-06T14:54:19.882Z,45.52
2022-12-06T14:56:48.081Z,50.58
2022-12-06T14:59:39.019Z,44.38
2022-12-06T15:01:56.370Z,49.48
2022-12-06T15:04:39.720Z,49.90
2022-12-06T15:07:14.480Z,46.35
2022-12-06T15:09:45.501Z,45.20
2022-12-06T15:12:43.377Z,66.97
2022-12-06T15:15:36.477Z,49.63
2022-12-06T15:18:24.269Z,55.03
2022-12-06T15:20:53.622Z,53.38
2022-12-06T15:23:39.272Z,50.38
2022-12-06T15:26:11.046Z,52.50
2022-12-06T15:28:39.700Z,56.13
2022-12-06T15:31:29.283Z,49.75
2022-12-06T15:33:57.321Z,58.48
2022-12-06T15:36:30.503Z,67.27
2022-12-06T15:38:58.227Z,75.10
2022-12-06T15:41:28.173Z,68.55
2022-12-06T15:43:58.755Z,63.45
2022-12-06T15:46:29.273Z,67.47
2022-12-06T15:48:57.589Z,62.80
2022-12-06T15:51:27.546Z,59.40
2022-12-06T15:53:58.932Z,62.38
2022-12-06T15:56:30.665Z,61.70
2022-12-06T15:58:58.921Z,63.38
2022-12-06T16:01:34.406Z,67.20
2022-12-06T16:06:30.298Z,64.67
2022-12-06T16:08:58.093Z,97.57
2022-12-06T16:11:27.219Z,94.62
2022-12-06T16:14:03.333Z,103.30
2022-12-06T16:16:32.274Z,89.10
2022-12-06T16:19:01.522Z,90.62
2022-12-06T16:21:34.426Z,95.72
2022-12-06T16:24:13.446Z,113.80
2022-12-06T16:26:44.067Z,116.35
2022-12-06T16:29:18.384Z,118.70
2022-12-06T16:31:47.603Z,122.20
2022-12-06T16:34:15.990Z,119.75
2022-12-06T16:37:06.215Z,102.10
2022-12-06T16:39:36.015Z,92.57
2022-12-06T16:42:04.667Z,90.40
2022-12-06T16:44:32.698Z,92.70
2022-12-06T16:47:00.641Z,85.45
2022-12-06T16:49:45.661Z,84.58
2022-12-06T16:52:00.147Z,92.10
2022-12-06T16:54:28.330Z,103.25
2022-12-06T16:56:56.419Z,121.82
2022-12-06T16:59:24.726Z,127.65
2022-12-06T17:01:54.912Z,126.92
2022-12-06T17:04:23.419Z,123.65
2022-12-06T17:06:51.627Z,121.62
2022-12-06T17:09:19.378Z,112.68
2022-12-06T17:12:02.895Z,122.47
2022-12-06T17:14:30.975Z,126.40
2022-12-06T17:17:00.985Z,114.77
2022-12-06T17:19:30.684Z,100.35
2022-12-06T17:22:01.670Z,85.32
2022-12-06T17:24:29.962Z,82.05
2022-12-06T17:27:00.406Z,70.40
2022-12-06T17:29:28.578Z,69.25
2022-12-06T17:31:58.665Z,72.62
2022-12-06T17:34:26.620Z,73.35
2022-12-06T17:36:56.457Z,69.60
2022-12-06T17:39:25.355Z,76.97
2022-12-06T17:42:12.502Z,74.72
2022-12-06T17:44:40.670Z,65.50
2022-12-06T17:47:08.814Z,67.70
2022-12-06T17:49:37.816Z,74.12
2022-12-06T17:52:06.054Z,74.62
2022-12-06T17:54:34.393Z,72.97
2022-12-06T17:57:02.529Z,73.05
2022-12-06T17:59:32.591Z,59.20
2022-12-06T18:02:19.482Z,55.28
2022-12-06T18:04:33.745Z,55.33
2022-12-06T18:07:01.778Z,55.38
2022-12-06T18:09:29.794Z,53.05
2022-12-06T18:12:00.731Z,49.58
2022-12-06T18:14:28.806Z,52.08
2022-12-06T18:16:56.973Z,53.92
2022-12-06T18:19:24.906Z,60.17
2022-12-06T18:21:53.099Z,58.38
2022-12-06T18:24:23.856Z,59.30
2022-12-06T18:26:51.419Z,58.63
2022-12-06T18:29:22.774Z,58.23
2022-12-06T18:31:51.497Z,58.02
2022-12-06T18:34:21.344Z,58.30
2022-12-06T18:36:49.333Z,58.80
2022-12-06T18:39:22.096Z,62.17
2022-12-06T18:41:51.578Z,58.17
2022-12-06T18:44:19.477Z,60.63
2022-12-06T18:46:50.020Z,57.45
2022-12-06T18:49:19.883Z,56.23
2022-12-06T18:51:48.228Z,56.70
2022-12-06T18:54:16.841Z,60.23
2022-12-06T18:56:47.067Z,55.98
2022-12-06T18:59:15.306Z,57.48
2022-12-06T19:01:44.804Z,53.78
2022-12-06T19:04:14.290Z,52.62
2022-12-06T19:06:44.143Z,55.12
2022-12-06T19:09:15.587Z,58.15
2022-12-06T19:11:45.976Z,56.33
2022-12-06T19:14:15.576Z,62.03
2022-12-06T19:16:47.098Z,66.80
2022-12-06T19:19:19.739Z,68.20
2022-12-06T19:21:50.010Z,70.28
2022-12-06T19:24:22.808Z,73.22
2022-12-06T19:26:52.762Z,71.65
2022-12-06T19:29:21.713Z,73.67
2022-12-06T19:31:50.504Z,73.25
2022-12-06T19:34:25.525Z,78.57
2022-12-06T19:36:55.024Z,84.92
2022-12-06T19:39:24.668Z,77.65
2022-12-06T19:42:11.449Z,74.40
2022-12-06T19:44:40.973Z,72.78
2022-12-06T19:47:08.907Z,68.10
2022-12-06T19:49:36.968Z,60.17
2022-12-06T19:52:05.455Z,61.92
2022-12-06T19:54:35.490Z,57.03
2022-12-06T19:57:07.630Z,55.05
2022-12-06T19:59:36.686Z,56.42
2022-12-06T20:02:05.368Z,60.40
2022-12-06T20:04:36.855Z,65.47
2022-12-06T20:07:06.748Z,59.10
2022-12-06T20:09:46.982Z,54.85
2022-12-06T20:12:15.191Z,54.27
2022-12-06T20:14:48.559Z,58.65
2022-12-06T20:17:21.428Z,57.80
2022-12-06T20:19:49.575Z,52.88
2022-12-06T20:22:21.725Z,49.23
2022-12-06T20:24:50.001Z,46.23
2022-12-06T20:27:20.888Z,43.78
2022-12-06T20:29:49.003Z,42.10
2022-12-06T20:32:17.196Z,47.08
2022-12-06T20:34:44.892Z,37.23
2022-12-06T20:37:12.583Z,33.85
2022-12-06T20:39:40.538Z,36.93
2022-12-06T20:42:08.430Z,38.15
2022-12-06T20:44:36.313Z,38.05
2022-12-06T20:47:04.147Z,43.87
2022-12-06T20:49:31.901Z,43.85
2022-12-06T20:52:01.543Z,44.75
2022-12-06T20:54:30.040Z,43.17
2022-12-06T20:56:59.381Z,40.95
2022-12-06T20:59:28.734Z,40.00
2022-12-06T21:01:58.762Z,40.08
2022-12-06T21:04:31.344Z,39.88
2022-12-06T21:06:59.030Z,39.85
2022-12-06T21:09:27.030Z,39.98
2022-12-06T21:11:55.333Z,42.13
2022-12-06T21:14:23.626Z,39.08
2022-12-06T21:16:52.001Z,38.75
2022-12-06T21:19:20.283Z,39.35
2022-12-06T21:21:53.083Z,43.63
2022-12-06T21:24:22.142Z,44.98
2022-12-06T21:26:50.044Z,46.15
2022-12-06T21:29:30.407Z,42.75
2022-12-06T21:31:54.252Z,44.08
2022-12-06T21:34:21.841Z,43.95
2022-12-06T21:36:49.595Z,44.77
2022-12-06T21:39:19.173Z,44.13
2022-12-06T21:41:46.612Z,45.35
2022-12-06T21:44:13.999Z,46.25
2022-12-06T21:46:41.878Z,50.85
2022-12-06T21:49:10.383Z,52.90
2022-12-06T21:51:38.166Z,51.92
2022-12-06T21:54:05.989Z,50.85
2022-12-06T21:56:34.594Z,49.05
2022-12-06T21:59:03.351Z,50.25
2022-12-06T22:01:32.154Z,47.05
2022-12-06T22:04:03.922Z,46.25
2022-12-06T22:06:33.085Z,49.98
2022-12-06T22:09:05.532Z,52.85
2022-12-06T22:11:34.292Z,53.95
2022-12-06T22:14:04.644Z,56.02
2022-12-06T22:16:32.546Z,55.90
2022-12-06T22:19:00.585Z,49.33
2022-12-06T22:21:31.506Z,46.95
2022-12-06T22:26:35.109Z,48.63
2022-12-06T22:29:02.817Z,47.08
2022-12-06T22:31:33.837Z,48.33
2022-12-06T22:34:02.947Z,48.35
2022-12-06T22:36:33.270Z,47.60
2022-12-06T22:39:04.118Z,48.42
2022-12-06T22:41:32.994Z,49.75
2022-12-06T22:44:03.587Z,47.58
2022-12-06T22:46:33.279Z,45.60
2022-12-06T22:49:02.078Z,44.48
2022-12-06T22:51:33.747Z,43.30
2022-12-06T22:54:09.271Z,44.53
2022-12-06T22:56:39.965Z,46.05
2022-12-06T22:59:09.078Z,46.28
2022-12-06T23:01:36.528Z,50.00
2022-12-06T23:04:06.526Z,46.20
2022-12-06T23:06:37.434Z,44.10
2022-12-06T23:09:08.320Z,45.95
2022-12-06T23:11:37.007Z,44.50
2022-12-06T23:14:05.147Z,42.73
2022-12-06T23:16:33.249Z,41.18
2022-12-06T23:19:02.890Z,37.08
2022-12-06T23:21:33.811Z,36.30
2022-12-06T23:24:04.989Z,34.78
2022-12-06T23:26:45.289Z,34.95
2022-12-06T23:29:14.594Z,34.53
2022-12-06T23:31:44.880Z,33.02
2022-12-06T23:34:22.725Z,32.55
2022-12-06T23:36:50.669Z,32.08
2022-12-06T23:39:18.776Z,32.60
2022-12-06T23:41:46.664Z,32.98
2022-12-06T23:44:14.406Z,32.03
2022-12-06T23:46:43.656Z,43.50
2022-12-06T23:49:18.595Z,45.80
2022-12-06T23:51:47.167Z,44.70
2022-12-06T23:54:17.027Z,43.95
2022-12-06T23:56:46.167Z,42.53
2022-12-06T23:59:16.371Z,43.85
